Time,TemperatureF,DewpointF,PressureIn,WindDirection,WindDirectionDegrees,WindSpeedMPH,WindSpeedGustMPH,Humidity,HourlyPrecipIn,Conditions,Clouds,dailyrainin,SoftwareType,DateUTC
2013-01-13 00:17:00,64.2,59.3,29.65,WSW,247,3.7,-999.0,84,-99.99,,,0.00,Acu-Link.com,2013-01-13 05:17:00,
2013-01-13 00:32:00,63.7,59.1,29.64,ENE,67,1.7,-999.0,85,-99.99,,,0.00,Acu-Link.com,2013-01-13 05:32:00,
2013-01-13 00:47:00,63.1,59.2,29.64,WSW,247,3.2,-999.0,87,-99.99,,,0.00,Acu-Link.com,2013-01-13 05:47:00,
2013-01-13 01:02:00,62.6,58.7,29.63,East,90,3.2,-999.0,87,-99.99,,,0.00,Acu-Link.com,2013-01-13 06:02:00,
2013-01-13 01:18:00,62.8,58.9,29.64,NNW,337,4.7,-999.0,87,-99.99,,,0.00,Acu-Link.com,2013-01-13 06:18:00,
2013-01-13 01:33:00,63.0,59.1,29.63,WSW,247,7.3,-999.0,87,-99.99,,,0.00,Acu-Link.com,2013-01-13 06:33:00,
2013-01-13 01:48:00,62.8,58.5,29.61,South,180,3.2,-999.0,86,-99.99,,,0.00,Acu-Link.com,2013-01-13 06:48:00,
2013-01-13 02:03:00,63.0,58.4,29.60,West,270,8.9,-999.0,85,-99.99,,,0.00,Acu-Link.com,2013-01-13 07:03:00,
2013-01-13 02:18:00,63.1,58.5,29.61,WSW,247,8.3,-999.0,85,-99.99,,,0.00,Acu-Link.com,2013-01-13 07:18:00,
2013-01-13 02:33:00,63.0,58.4,29.61,West,270,5.3,-999.0,85,-99.99,,,0.00,Acu-Link.com,2013-01-13 07:33:00,
2013-01-13 02:48:00,62.8,58.2,29.62,WSW,247,6.3,-999.0,85,-99.99,,,0.00,Acu-Link.com,2013-01-13 07:48:00,
2013-01-13 03:03:00,62.8,57.9,29.62,SW,225,4.7,-999.0,84,-99.99,,,0.00,Acu-Link.com,2013-01-13 08:03:00,
2013-01-13 03:18:00,63.0,58.1,29.62,WSW,247,6.8,-999.0,84,-99.99,,,0.00,Acu-Link.com,2013-01-13 08:18:00,
2013-01-13 03:34:00,63.1,57.8,29.62,WSW,247,5.8,-999.0,83,-99.99,,,0.00,Acu-Link.com,2013-01-13 08:34:00,
2013-01-13 03:49:00,63.5,58.2,29.62,SW,225,8.9,-999.0,83,-99.99,,,0.00,Acu-Link.com,2013-01-13 08:49:00,
2013-01-13 04:10:00,63.5,58.2,29.62,SW,225,5.8,-999.0,83,-99.99,,,0.00,Acu-Link.com,2013-01-13 09:10:00,
2013-01-13 04:25:00,63.1,57.8,29.63,WSW,247,5.3,-999.0,83,-99.99,,,0.00,Acu-Link.com,2013-01-13 09:25:00,
2013-01-13 04:40:00,63.7,58.1,29.63,WSW,247,7.3,-999.0,82,-99.99,,,0.00,Acu-Link.com,2013-01-13 09:40:00,
2013-01-13 04:55:00,64.6,57.9,29.63,SW,225,8.3,-999.0,79,-99.99,,,0.00,Acu-Link.com,2013-01-13 09:55:00,
2013-01-13 05:10:00,65.3,58.3,29.63,SW,225,8.9,-999.0,78,-99.99,,,0.00,Acu-Link.com,2013-01-13 10:10:00,
2013-01-13 05:26:00,65.7,58.6,29.62,WSW,247,12.5,-999.0,78,-99.99,,,0.00,Acu-Link.com,2013-01-13 10:26:00,
2013-01-13 05:41:00,65.8,58.4,29.63,SW,225,15.5,-999.0,77,-99.99,,,0.00,Acu-Link.com,2013-01-13 10:41:00,
2013-01-13 05:56:00,66.2,58.4,29.63,South,180,9.9,-999.0,76,-99.99,,,0.00,Acu-Link.com,2013-01-13 10:56:00,
2013-01-13 06:11:00,66.2,58.4,29.65,WSW,247,9.9,-999.0,76,-99.99,,,0.00,Acu-Link.com,2013-01-13 11:11:00,
2013-01-13 06:26:00,65.8,58.0,29.66,WSW,247,9.9,-999.0,76,-99.99,,,0.00,Acu-Link.com,2013-01-13 11:26:00,
2013-01-13 06:41:00,65.8,58.0,29.67,WSW,247,9.4,-999.0,76,-99.99,,,0.00,Acu-Link.com,2013-01-13 11:41:00,
2013-01-13 06:57:00,65.5,58.1,29.69,WSW,247,9.4,-999.0,77,-99.99,,,0.00,Acu-Link.com,2013-01-13 11:57:00,
2013-01-13 07:12:00,64.9,58.6,29.72,WNW,292,5.3,-999.0,80,-99.99,,,0.00,Acu-Link.com,2013-01-13 12:12:00,
2013-01-13 07:27:00,61.3,57.7,29.73,West,270,4.7,-999.0,88,-99.99,,,0.00,Acu-Link.com,2013-01-13 12:27:00,
2013-01-13 07:42:00,60.1,56.5,29.74,WNW,292,5.8,-999.0,88,-99.99,,,0.03,Acu-Link.com,2013-01-13 12:42:00,
2013-01-13 07:57:00,59.4,55.5,29.75,West,270,4.7,-999.0,87,-99.99,,,0.05,Acu-Link.com,2013-01-13 12:57:00,
2013-01-13 08:12:00,58.6,55.1,29.74,NNW,337,3.7,-999.0,88,-99.99,,,0.06,Acu-Link.com,2013-01-13 13:12:00,
2013-01-13 08:27:00,58.3,54.8,29.75,West,270,0.0,-999.0,88,-99.99,,,0.06,Acu-Link.com,2013-01-13 13:27:00,
2013-01-13 08:42:00,57.9,54.4,29.75,WNW,292,4.2,-999.0,88,-99.99,,,0.10,Acu-Link.com,2013-01-13 13:42:00,
2013-01-13 08:57:00,57.7,53.5,29.77,WNW,292,4.7,-999.0,86,-99.99,,,0.17,Acu-Link.com,2013-01-13 13:57:00,
2013-01-13 09:13:00,57.6,51.5,29.78,West,270,4.7,-999.0,80,-99.99,,,0.29,Acu-Link.com,2013-01-13 14:13:00,
2013-01-13 09:28:00,57.6,50.8,29.76,WSW,247,0.0,-999.0,78,-99.99,,,0.31,Acu-Link.com,2013-01-13 14:28:00,
2013-01-13 09:43:00,57.4,48.4,29.78,SSW,202,0.0,-999.0,72,-99.99,,,0.33,Acu-Link.com,2013-01-13 14:43:00,
2013-01-13 09:58:00,57.7,48.7,29.77,SW,225,0.0,-999.0,72,-99.99,,,0.40,Acu-Link.com,2013-01-13 14:58:00,
2013-01-13 10:13:00,57.7,49.5,29.75,SSE,157,4.7,-999.0,74,-99.99,,,0.40,Acu-Link.com,2013-01-13 15:13:00,
2013-01-13 10:28:00,58.1,50.2,29.75,ESE,112,1.7,-999.0,75,-99.99,,,0.40,Acu-Link.com,2013-01-13 15:28:00,
2013-01-13 10:43:00,58.6,52.8,29.74,SE,135,4.2,-999.0,81,-99.99,,,0.40,Acu-Link.com,2013-01-13 15:43:00,
2013-01-13 10:58:00,58.3,53.2,29.73,SE,135,9.4,-999.0,83,-99.99,,,0.40,Acu-Link.com,2013-01-13 15:58:00,
2013-01-13 11:13:00,58.5,53.0,29.72,SE,135,8.3,-999.0,82,-99.99,,,0.40,Acu-Link.com,2013-01-13 16:13:00,
2013-01-13 11:29:00,58.6,54.1,29.70,ESE,112,9.4,-999.0,85,-99.99,,,0.40,Acu-Link.com,2013-01-13 16:29:00,
2013-01-13 11:44:00,58.6,55.1,29.70,SE,135,7.3,-999.0,88,-99.99,,,0.40,Acu-Link.com,2013-01-13 16:44:00,
2013-01-13 11:59:00,58.6,54.7,29.72,SW,225,0.0,-999.0,87,-99.99,,,0.40,Acu-Link.com,2013-01-13 16:59:00,
2013-01-13 12:14:00,59.0,55.4,29.72,SSE,157,1.7,-999.0,88,-99.99,,,0.42,Acu-Link.com,2013-01-13 17:14:00,
2013-01-13 12:29:00,59.4,55.5,29.72,West,270,0.0,-999.0,87,-99.99,,,0.43,Acu-Link.com,2013-01-13 17:29:00,
2013-01-13 12:44:00,59.4,55.5,29.71,SW,225,0.0,-999.0,87,-99.99,,,0.44,Acu-Link.com,2013-01-13 17:44:00,
2013-01-13 12:59:00,59.2,55.6,29.69,ESE,112,3.7,-999.0,88,-99.99,,,0.45,Acu-Link.com,2013-01-13 17:59:00,
2013-01-13 13:14:00,59.4,56.2,29.68,ESE,112,2.2,-999.0,89,-99.99,,,0.47,Acu-Link.com,2013-01-13 18:14:00,
2013-01-13 13:29:00,60.1,59.5,29.67,SE,135,3.7,-999.0,98,-99.99,,,0.48,Acu-Link.com,2013-01-13 18:29:00,
2013-01-13 13:45:00,59.9,59.3,29.67,SSE,157,3.7,-999.0,98,-99.99,,,0.48,Acu-Link.com,2013-01-13 18:45:00,
2013-01-13 14:00:00,59.9,57.0,29.66,ESE,112,5.3,-999.0,90,-99.99,,,0.48,Acu-Link.com,2013-01-13 19:00:00,
2013-01-13 14:15:00,59.7,56.5,29.66,South,180,3.7,-999.0,89,-99.99,,,0.49,Acu-Link.com,2013-01-13 19:15:00,
2013-01-13 14:30:00,59.5,55.9,29.67,ESE,112,1.7,-999.0,88,-99.99,,,0.49,Acu-Link.com,2013-01-13 19:30:00,
2013-01-13 14:45:00,59.5,55.3,29.68,ESE,112,4.2,-999.0,86,-99.99,,,0.51,Acu-Link.com,2013-01-13 19:45:00,
2013-01-13 15:00:00,59.4,54.2,29.68,WSW,247,1.1,-999.0,83,-99.99,,,0.55,Acu-Link.com,2013-01-13 20:00:00,
2013-01-13 15:15:00,59.4,54.2,29.69,SW,225,4.2,-999.0,83,-99.99,,,0.58,Acu-Link.com,2013-01-13 20:15:00,
2013-01-13 15:30:00,59.2,52.3,29.69,SSE,157,0.0,-999.0,78,-99.99,,,0.69,Acu-Link.com,2013-01-13 20:30:00,
2013-01-13 15:45:00,59.0,51.4,29.70,SW,225,4.2,-999.0,76,-99.99,,,0.76,Acu-Link.com,2013-01-13 20:45:00,
2013-01-13 16:17:00,59.0,50.4,29.69,ESE,112,1.1,-999.0,73,-99.99,,,0.87,Acu-Link.com,2013-01-13 21:17:00,
2013-01-13 16:32:00,64.8,58.5,29.69,ENE,67,0.0,-999.0,80,-99.99,,,0.91,Acu-Link.com,2013-01-13 21:32:00,
2013-01-13 16:47:00,60.4,55.9,29.68,SE,135,0.0,-999.0,85,-99.99,,,0.98,Acu-Link.com,2013-01-13 21:47:00,
2013-01-13 17:02:00,59.5,54.0,29.69,West,270,2.2,-999.0,82,-99.99,,,1.05,Acu-Link.com,2013-01-13 22:02:00,
2013-01-13 17:18:00,58.8,50.9,29.68,South,180,0.0,-999.0,75,-99.99,,,1.23,Acu-Link.com,2013-01-13 22:18:00,
2013-01-13 17:33:00,58.8,48.7,29.68,SSE,157,0.0,-999.0,69,-99.99,,,1.51,Acu-Link.com,2013-01-13 22:33:00,
2013-01-13 17:48:00,58.6,36.8,29.66,ESE,112,2.7,-999.0,44,-99.99,,,1.56,Acu-Link.com,2013-01-13 22:48:00,
2013-01-13 18:03:00,58.6,36.8,29.67,ESE,112,5.3,-999.0,44,-99.99,,,1.63,Acu-Link.com,2013-01-13 23:03:00,
2013-01-13 18:18:00,58.5,36.1,29.65,East,90,4.2,-999.0,43,-99.99,,,1.68,Acu-Link.com,2013-01-13 23:18:00,
2013-01-13 18:33:00,58.3,36.5,29.68,SW,225,1.7,-999.0,44,-99.99,,,1.74,Acu-Link.com,2013-01-13 23:33:00,
2013-01-13 18:49:00,58.1,38.0,29.69,SSW,202,2.2,-999.0,47,-99.99,,,1.81,Acu-Link.com,2013-01-13 23:49:00,
2013-01-13 19:04:00,57.9,38.9,29.65,East,90,3.7,-999.0,49,-99.99,,,1.87,Acu-Link.com,2013-01-14 00:04:00,
2013-01-13 19:19:00,57.9,39.4,29.63,East,90,5.3,-999.0,50,-99.99,,,1.89,Acu-Link.com,2013-01-14 00:19:00,
2013-01-13 19:34:00,57.9,40.4,29.65,WSW,247,3.7,-999.0,52,-99.99,,,1.89,Acu-Link.com,2013-01-14 00:34:00,
2013-01-13 19:49:00,57.7,41.2,29.65,WNW,292,0.0,-999.0,54,-99.99,,,1.89,Acu-Link.com,2013-01-14 00:49:00,
2013-01-13 20:04:00,57.7,42.1,29.67,WSW,247,2.7,-999.0,56,-99.99,,,1.89,Acu-Link.com,2013-01-14 01:04:00,
2013-01-13 20:19:00,57.6,42.0,29.66,SSW,202,0.0,-999.0,56,-99.99,,,1.89,Acu-Link.com,2013-01-14 01:19:00,
2013-01-13 20:34:00,57.6,42.9,29.66,SW,225,2.2,-999.0,58,-99.99,,,1.91,Acu-Link.com,2013-01-14 01:34:00,
2013-01-13 20:50:00,51.4,44.4,29.72,West,270,10.4,-999.0,77,-99.99,,,1.97,Acu-Link.com,2013-01-14 01:50:00,
2013-01-13 21:05:00,48.0,42.5,29.73,WNW,292,4.7,-999.0,81,-99.99,,,2.00,Acu-Link.com,2013-01-14 02:05:00,
2013-01-13 21:20:00,46.8,41.0,29.75,West,270,8.3,-999.0,80,-99.99,,,2.01,Acu-Link.com,2013-01-14 02:20:00,
2013-01-13 21:35:00,45.9,39.4,29.77,West,270,10.9,-999.0,78,-99.99,,,2.03,Acu-Link.com,2013-01-14 02:35:00,
2013-01-13 21:50:00,44.1,39.6,29.80,West,270,4.7,-999.0,84,-99.99,,,2.05,Acu-Link.com,2013-01-14 02:50:00,
2013-01-13 22:05:00,42.6,39.0,29.83,West,270,11.9,-999.0,87,-99.99,,,2.06,Acu-Link.com,2013-01-14 03:05:00,
2013-01-13 22:21:00,41.7,38.1,29.84,NW,315,4.7,-999.0,87,-99.99,,,2.06,Acu-Link.com,2013-01-14 03:21:00,
2013-01-13 22:36:00,40.8,37.2,29.86,West,270,6.3,-999.0,87,-99.99,,,2.06,Acu-Link.com,2013-01-14 03:36:00,
2013-01-13 22:51:00,40.3,37.3,29.86,WNW,292,4.7,-999.0,89,-99.99,,,2.06,Acu-Link.com,2013-01-14 03:51:00,
2013-01-13 23:06:00,39.9,36.9,29.87,NW,315,8.9,-999.0,89,-99.99,,,2.06,Acu-Link.com,2013-01-14 04:06:00,
2013-01-13 23:21:00,39.4,36.1,29.88,West,270,8.9,-999.0,88,-99.99,,,2.06,Acu-Link.com,2013-01-14 04:21:00,
2013-01-13 23:36:00,39.2,34.8,29.89,WNW,292,2.2,-999.0,84,-99.99,,,2.06,Acu-Link.com,2013-01-14 04:36:00,
2013-01-13 23:51:00,39.0,35.5,29.90,WNW,292,4.7,-999.0,87,-99.99,,,2.06,Acu-Link.com,2013-01-14 04:51:00,